Time;durP1;ratioP1;P1;durP2;ratioP2;P2;SDS_P1;SDS_P2;PMS_P1;PMS_P2;Temp;Humidity;BMP_temperature;BMP_pressure;BME280_temperature;BME280_humidity;BME280_pressure;Samples;Min_cycle;Max_cycle;Signal;HPM_P1;HPM_P2
2020/12/17 00:02:00;;;;;;;1.60;1.20;;;3.50;98.00;;;;;;5030206;28;20856;-67
2020/12/17 00:04:28;;;;;;;1.50;1.30;;;3.40;98.00;;;;;;5031466;28;20455;-67
2020/12/17 00:06:56;;;;;;;1.30;1.30;;;3.40;98.00;;;;;;5029787;28;21008;-68
2020/12/17 00:09:26;;;;;;;4.40;1.53;;;3.50;98.00;;;;;;5032174;28;20881;-66
2020/12/17 00:11:56;;;;;;;6.50;3.20;;;3.40;98.00;;;;;;5031074;28;20459;-66
2020/12/17 00:14:26;;;;;;;2.90;1.70;;;3.40;98.00;;;;;;5032491;28;20461;-66
2020/12/17 00:16:53;;;;;;;1.40;1.30;;;3.50;98.00;;;;;;5030777;28;20462;-67
2020/12/17 00:19:20;;;;;;;4.20;2.60;;;3.60;98.00;;;;;;5032413;28;20458;-67
2020/12/17 00:21:46;;;;;;;2.57;2.47;;;3.70;98.00;;;;;;5029693;28;20478;-67
2020/12/17 00:24:13;;;;;;;2.97;2.20;;;3.60;98.00;;;;;;5032238;28;20454;-66
2020/12/17 00:26:40;;;;;;;1.80;1.30;;;3.60;98.00;;;;;;5030574;28;20481;-66
2020/12/17 00:29:06;;;;;;;5.37;2.27;;;3.60;98.00;;;;;;5032116;28;20451;-66
2020/12/17 00:31:33;;;;;;;1.27;1.17;;;3.70;98.00;;;;;;5030531;28;20523;-68
2020/12/17 00:33:59;;;;;;;2.00;1.57;;;3.60;98.00;;;;;;5031115;28;20482;-67
2020/12/17 00:36:26;;;;;;;2.17;1.67;;;3.40;98.00;;;;;;5031744;28;20880;-67
2020/12/17 00:38:52;;;;;;;4.97;2.27;;;3.40;98.00;;;;;;5030546;28;20469;-66
2020/12/17 00:41:20;;;;;;;1.87;1.83;;;3.30;98.00;;;;;;5031891;28;20758;-66
2020/12/17 00:43:46;;;;;;;1.53;1.47;;;3.20;98.00;;;;;;5030077;28;20466;-66
2020/12/17 00:46:15;;;;;;;1.90;1.53;;;3.30;98.00;;;;;;5031775;28;20510;-68
2020/12/17 00:48:42;;;;;;;1.20;1.00;;;3.30;98.00;;;;;;5030204;28;20494;-66
2020/12/17 00:51:08;;;;;;;4.00;2.73;;;3.20;98.00;;;;;;5031555;28;20462;-67
2020/12/17 00:53:35;;;;;;;1.83;1.53;;;3.40;98.00;;;;;;5029832;28;20462;-67
2020/12/17 00:56:01;;;;;;;2.80;1.93;;;3.40;98.00;;;;;;5031739;28;20459;-65
2020/12/17 00:58:29;;;;;;;2.70;1.27;;;3.30;98.00;;;;;;5029872;28;20459;-67
2020/12/17 01:00:55;;;;;;;1.70;1.60;;;3.30;98.00;;;;;;5031514;28;20462;-67
2020/12/17 01:03:22;;;;;;;2.03;1.73;;;3.20;98.00;;;;;;5029639;28;20459;-66
2020/12/17 01:05:48;;;;;;;1.90;1.43;;;3.30;98.00;;;;;;5031388;28;20466;-66
2020/12/17 01:08:16;;;;;;;2.27;1.57;;;3.40;98.00;;;;;;5029565;28;20486;-66
2020/12/17 01:10:42;;;;;;;2.40;1.13;;;3.40;98.00;;;;;;5031423;28;20461;-67
2020/12/17 01:13:09;;;;;;;2.23;2.10;;;3.40;98.00;;;;;;5029691;28;20466;-68
2020/12/17 01:15:36;;;;;;;1.87;1.63;;;3.30;98.00;;;;;;5031250;28;20458;-67
2020/12/17 01:18:02;;;;;;;2.27;1.93;;;3.30;98.00;;;;;;5029614;28;20515;-66
2020/12/17 01:20:29;;;;;;;5.80;2.20;;;3.40;98.00;;;;;;5030925;28;20458;-65
2020/12/17 01:22:55;;;;;;;1.23;1.13;;;3.40;98.00;;;;;;5028426;28;20442;-67
2020/12/17 01:25:22;;;;;;;2.17;1.77;;;3.40;98.00;;;;;;5031178;28;20462;-67
2020/12/17 01:27:49;;;;;;;1.20;1.00;;;3.40;98.00;;;;;;5028090;28;20489;-66
2020/12/17 01:30:15;;;;;;;1.27;1.20;;;3.50;98.00;;;;;;5030942;28;20458;-69
2020/12/17 01:32:43;;;;;;;2.57;1.80;;;3.30;98.00;;;;;;5029745;28;20462;-66
2020/12/17 01:35:09;;;;;;;2.37;1.80;;;3.20;98.00;;;;;;5031250;28;20837;-67
2020/12/17 01:37:36;;;;;;;1.30;1.20;;;3.30;98.00;;;;;;5029546;28;20512;-67
2020/12/17 01:40:03;;;;;;;1.20;1.00;;;3.20;98.00;;;;;;5031069;28;20501;-66
2020/12/17 01:42:29;;;;;;;1.47;1.30;;;3.10;98.00;;;;;;5028769;28;20462;-67
2020/12/17 01:44:56;;;;;;;1.30;1.27;;;3.10;98.00;;;;;;5030550;28;20979;-67
2020/12/17 01:47:27;;;;;;;2.50;1.70;;;3.10;98.00;;;;;;5029134;28;20776;-68
2020/12/17 01:49:55;;;;;;;1.77;1.37;;;3.10;98.00;;;;;;5030791;28;20509;-68
2020/12/17 01:52:21;;;;;;;1.40;1.20;;;3.10;98.00;;;;;;5028348;28;21014;-67
2020/12/17 01:54:54;;;;;;;1.87;1.53;;;3.20;98.00;;;;;;5030691;28;20461;-67
2020/12/17 01:57:21;;;;;;;2.90;1.80;;;3.20;98.00;;;;;;5028869;28;20550;-66
2020/12/17 01:59:49;;;;;;;3.00;2.40;;;3.20;98.00;;;;;;5030670;28;20464;-67
2020/12/17 02:02:17;;;;;;;1.20;1.10;;;3.20;98.00;;;;;;5029125;28;20457;-68
2020/12/17 02:04:46;;;;;;;1.43;1.20;;;3.10;98.00;;;;;;5030679;28;20528;-66
2020/12/17 02:07:14;;;;;;;1.63;1.40;;;3.10;98.00;;;;;;5029069;28;20489;-68
2020/12/17 02:09:41;;;;;;;5.10;2.30;;;3.10;98.00;;;;;;5030801;28;20470;-66
2020/12/17 02:12:08;;;;;;;1.40;1.40;;;2.90;98.00;;;;;;5028946;28;20473;-66
2020/12/17 02:14:38;;;;;;;5.13;2.30;;;2.80;98.00;;;;;;5030645;28;20982;-67
2020/12/17 02:17:04;;;;;;;4.50;2.07;;;2.60;98.00;;;;;;5029189;28;20877;-68
2020/12/17 02:19:38;;;;;;;1.50;1.20;;;2.70;98.00;;;;;;5030503;28;20458;-68
2020/12/17 02:22:05;;;;;;;1.40;1.30;;;2.70;98.00;;;;;;5028589;28;20631;-66
2020/12/17 02:24:40;;;;;;;1.20;1.10;;;2.60;98.00;;;;;;5030537;28;20470;-67
2020/12/17 02:27:06;;;;;;;1.40;1.40;;;2.60;98.00;;;;;;5027678;28;20501;-67
2020/12/17 02:29:34;;;;;;;2.47;2.00;;;2.50;98.00;;;;;;5029277;28;20516;-67
2020/12/17 02:32:01;;;;;;;3.30;2.40;;;2.50;98.00;;;;;;5027728;28;20761;-67
2020/12/17 02:34:27;;;;;;;1.70;1.20;;;2.50;98.00;;;;;;5029169;28;20806;-65
2020/12/17 02:36:54;;;;;;;3.90;1.70;;;2.50;98.00;;;;;;5027934;28;20580;-67
2020/12/17 02:39:21;;;;;;;1.50;1.37;;;2.60;98.00;;;;;;5030428;28;20466;-68
2020/12/17 02:41:48;;;;;;;2.90;1.20;;;2.60;98.00;;;;;;5027138;28;20457;-68
2020/12/17 02:44:14;;;;;;;2.07;1.40;;;2.60;98.00;;;;;;5030330;28;20497;-66
2020/12/17 02:46:41;;;;;;;1.60;1.60;;;2.60;98.00;;;;;;5029338;28;20458;-66
2020/12/17 02:49:07;;;;;;;4.13;2.33;;;2.70;98.00;;;;;;5030285;28;20462;-67
2020/12/17 02:51:38;;;;;;;4.20;2.70;;;2.70;98.00;;;;;;5030370;28;20481;-66
2020/12/17 02:54:05;;;;;;;1.20;1.10;;;2.80;98.00;;;;;;5029102;28;20829;-68
2020/12/17 02:56:31;;;;;;;3.97;2.23;;;2.80;98.00;;;;;;5030539;28;20457;-68
2020/12/17 02:58:58;;;;;;;2.07;1.60;;;2.70;98.00;;;;;;5032423;28;20828;-67
2020/12/17 03:01:25;;;;;;;1.20;1.10;;;2.60;98.00;;;;;;5034046;28;20469;-67
2020/12/17 03:03:51;;;;;;;1.40;1.40;;;2.50;98.00;;;;;;5032370;28;20457;-68
2020/12/17 03:06:18;;;;;;;1.20;0.90;;;2.60;98.00;;;;;;5033874;28;21005;-66
2020/12/17 03:08:44;;;;;;;1.20;1.20;;;2.60;98.00;;;;;;5032370;28;20916;-67
2020/12/17 03:11:12;;;;;;;1.53;1.53;;;2.40;98.00;;;;;;5033765;28;20524;-68
2020/12/17 03:13:38;;;;;;;3.27;2.13;;;2.20;98.00;;;;;;5030914;28;21007;-66
2020/12/17 03:16:06;;;;;;;1.67;1.37;;;2.10;98.00;;;;;;5033996;28;20469;-65
2020/12/17 03:18:32;;;;;;;4.03;2.47;;;2.10;98.00;;;;;;5033116;28;20875;-65
2020/12/17 03:21:00;;;;;;;1.30;1.10;;;2.10;98.00;;;;;;5033640;28;20468;-67
2020/12/17 03:23:26;;;;;;;1.30;1.30;;;2.20;98.00;;;;;;5032084;28;20462;-66
2020/12/17 03:25:53;;;;;;;1.30;1.30;;;2.20;98.00;;;;;;5033471;28;20466;-67
2020/12/17 03:28:19;;;;;;;1.63;1.30;;;2.20;98.00;;;;;;5031730;28;20485;-67
2020/12/17 03:30:46;;;;;;;2.17;1.47;;;2.30;98.00;;;;;;5033150;28;20465;-67
2020/12/17 03:33:13;;;;;;;7.90;2.63;;;2.10;98.00;;;;;;5031725;28;20466;-65
2020/12/17 03:35:40;;;;;;;10.37;1.50;;;2.30;98.00;;;;;;5033370;28;20458;-66
2020/12/17 03:38:06;;;;;;;1.20;0.90;;;2.30;98.00;;;;;;5031872;28;20461;-67
2020/12/17 03:40:33;;;;;;;1.40;1.20;;;2.40;98.00;;;;;;5033015;28;20454;-65
2020/12/17 03:42:59;;;;;;;1.73;1.60;;;2.40;98.00;;;;;;5031461;28;20454;-67
2020/12/17 03:45:26;;;;;;;2.07;1.60;;;2.40;98.00;;;;;;5033049;28;20830;-66
2020/12/17 03:47:52;;;;;;;1.20;1.00;;;2.20;98.00;;;;;;5030253;28;20525;-67
2020/12/17 03:50:20;;;;;;;3.43;2.50;;;2.10;98.00;;;;;;5032925;28;20836;-66
2020/12/17 03:52:46;;;;;;;1.20;1.00;;;2.10;98.00;;;;;;5031394;28;20457;-66
2020/12/17 03:55:13;;;;;;;1.20;1.03;;;2.00;98.00;;;;;;5032896;28;20520;-66
2020/12/17 03:57:39;;;;;;;1.20;1.10;;;1.90;98.00;;;;;;5031062;28;20461;-65
2020/12/17 04:00:07;;;;;;;1.87;1.40;;;1.80;98.00;;;;;;5032896;28;20970;-67
2020/12/17 04:02:33;;;;;;;6.57;2.03;;;2.00;98.00;;;;;;5029905;28;20865;-65
2020/12/17 04:05:00;;;;;;;3.10;1.80;;;2.20;98.00;;;;;;5032708;28;20462;-65
2020/12/17 04:07:28;;;;;;;1.60;1.50;;;2.10;98.00;;;;;;5030753;28;20504;-66
2020/12/17 04:09:54;;;;;;;1.20;1.00;;;2.10;98.00;;;;;;5032582;28;20969;-65
2020/12/17 04:12:21;;;;;;;1.80;1.40;;;2.10;98.00;;;;;;5030778;28;20509;-66
2020/12/17 04:14:50;;;;;;;1.30;1.30;;;2.10;98.00;;;;;;5032475;28;20466;-66
2020/12/17 04:17:17;;;;;;;1.20;1.00;;;2.20;98.00;;;;;;5030670;28;20453;-67
2020/12/17 04:19:44;;;;;;;4.20;2.30;;;2.10;98.00;;;;;;5032419;28;20470;-67
2020/12/17 04:22:16;;;;;;;1.70;1.37;;;2.00;98.00;;;;;;5030696;28;20464;-66
2020/12/17 04:24:45;;;;;;;1.13;1.00;;;1.90;98.00;;;;;;5032354;28;20462;-66
2020/12/17 04:27:11;;;;;;;1.60;1.30;;;1.80;98.00;;;;;;5030642;28;20489;-67
2020/12/17 04:29:38;;;;;;;1.73;1.63;;;1.90;98.00;;;;;;5032484;28;20944;-66
2020/12/17 04:32:04;;;;;;;1.20;1.00;;;2.00;98.00;;;;;;5031036;28;20462;-66
2020/12/17 04:34:31;;;;;;;1.60;1.53;;;2.10;98.00;;;;;;5032311;28;20454;-68
2020/12/17 04:36:58;;;;;;;3.10;2.20;;;2.10;98.00;;;;;;5030273;28;20543;-65
2020/12/17 04:39:24;;;;;;;1.30;1.27;;;2.10;98.00;;;;;;5032073;28;21041;-66
2020/12/17 04:41:53;;;;;;;1.50;1.20;;;2.10;98.00;;;;;;5031635;28;20855;-66
2020/12/17 04:44:20;;;;;;;1.97;1.17;;;2.00;98.00;;;;;;5031800;28;20457;-67
2020/12/17 04:46:56;;;;;;;1.30;1.17;;;1.80;98.00;;;;;;5031838;28;20982;-66
2020/12/17 04:49:25;;;;;;;2.60;1.30;;;1.80;98.00;;;;;;5030499;28;20603;-66
2020/12/17 04:51:56;;;;;;;2.77;2.10;;;1.90;98.00;;;;;;5031468;28;20519;-66
2020/12/17 04:54:23;;;;;;;1.10;1.00;;;2.00;98.00;;;;;;5031447;28;20458;-66
2020/12/17 04:56:58;;;;;;;1.20;1.10;;;2.10;98.00;;;;;;5031251;28;20502;-66
2020/12/17 04:59:43;;;;;;;1.40;1.10;;;2.00;98.00;;;;;;5031625;28;20981;-66
2020/12/17 05:02:11;;;;;;;4.37;1.67;;;2.00;98.00;;;;;;5030082;28;20893;-65
2020/12/17 05:04:39;;;;;;;1.30;1.27;;;2.10;98.00;;;;;;5031406;28;20462;-66
2020/12/17 05:07:07;;;;;;;1.77;1.70;;;1.90;98.00;;;;;;5029817;28;20968;-67
2020/12/17 05:09:35;;;;;;;1.67;1.57;;;1.80;98.00;;;;;;5031339;28;20469;-66
2020/12/17 05:12:03;;;;;;;3.00;1.50;;;1.80;98.00;;;;;;5029768;28;20458;-65
2020/12/17 05:14:29;;;;;;;1.57;1.47;;;2.00;98.00;;;;;;5031326;28;20499;-66
2020/12/17 05:16:56;;;;;;;1.50;1.30;;;2.10;98.00;;;;;;5030414;28;20462;-68
2020/12/17 05:19:23;;;;;;;3.10;1.73;;;1.90;98.00;;;;;;5030469;28;20527;-68
2020/12/17 05:21:51;;;;;;;1.20;1.03;;;1.80;98.00;;;;;;5031092;28;20500;-64
2020/12/17 05:24:21;;;;;;;1.20;1.07;;;1.60;98.00;;;;;;5029746;28;20453;-65
2020/12/17 05:26:48;;;;;;;1.20;1.00;;;1.60;98.00;;;;;;5031068;28;21037;-67
2020/12/17 05:29:16;;;;;;;1.57;1.30;;;1.60;98.00;;;;;;5029508;28;20474;-67
2020/12/17 05:31:43;;;;;;;1.20;1.10;;;1.70;98.00;;;;;;5031007;28;20523;-67
2020/12/17 05:34:10;;;;;;;2.60;1.83;;;1.70;98.00;;;;;;5029550;28;20466;-68
2020/12/17 05:36:36;;;;;;;1.37;1.20;;;1.80;98.00;;;;;;5030876;28;20465;-67
2020/12/17 05:39:12;;;;;;;3.93;2.97;;;1.60;98.00;;;;;;5029262;28;20465;-67
2020/12/17 05:41:40;;;;;;;1.20;1.00;;;1.70;98.00;;;;;;5030979;28;20465;-67
2020/12/17 05:44:15;;;;;;;1.30;1.00;;;1.60;98.00;;;;;;5029401;28;20485;-67
2020/12/17 05:46:43;;;;;;;1.20;1.10;;;1.50;98.00;;;;;;5030692;28;20492;-67
2020/12/17 05:49:13;;;;;;;1.30;1.20;;;1.70;98.00;;;;;;5029270;28;20484;-68
2020/12/17 05:51:40;;;;;;;1.20;1.10;;;1.70;98.00;;;;;;5029572;28;20490;-68
2020/12/17 05:54:09;;;;;;;2.83;1.87;;;1.70;98.00;;;;;;5029162;28;20466;-69
2020/12/17 05:56:37;;;;;;;2.40;2.03;;;1.70;98.00;;;;;;5030871;28;20511;-67
2020/12/17 05:59:05;;;;;;;1.67;1.40;;;1.70;98.00;;;;;;5029579;28;20875;-68
2020/12/17 06:01:33;;;;;;;1.20;1.10;;;1.60;98.00;;;;;;5030701;28;20469;-68
2020/12/17 06:04:13;;;;;;;1.40;1.27;;;1.70;98.00;;;;;;5029157;28;20458;-68
2020/12/17 06:06:44;;;;;;;1.50;1.43;;;1.70;98.00;;;;;;5029418;28;20480;-67
2020/12/17 06:09:19;;;;;;;1.93;1.43;;;1.70;98.00;;;;;;5028975;28;20591;-66
2020/12/17 06:11:46;;;;;;;1.30;1.20;;;1.70;98.00;;;;;;5030641;28;20480;-68
2020/12/17 06:14:14;;;;;;;1.63;1.57;;;1.60;98.00;;;;;;5028964;28;20468;-68
2020/12/17 06:16:43;;;;;;;2.27;1.63;;;1.70;98.00;;;;;;5030378;28;20949;-70
2020/12/17 06:19:13;;;;;;;1.47;1.30;;;1.70;98.00;;;;;;5029071;28;20465;-68
2020/12/17 06:21:41;;;;;;;1.23;1.17;;;1.70;98.00;;;;;;5030315;28;20472;-68
2020/12/17 06:24:09;;;;;;;2.07;1.50;;;1.70;98.00;;;;;;5028777;28;20458;-68
2020/12/17 06:26:40;;;;;;;1.37;1.33;;;1.70;98.00;;;;;;5030638;28;20495;-68
2020/12/17 06:29:18;;;;;;;1.43;1.33;;;1.70;98.00;;;;;;5028927;28;20494;-68
2020/12/17 06:31:54;;;;;;;2.30;1.73;;;1.50;98.00;;;;;;5032788;28;20468;-68
2020/12/17 06:34:21;;;;;;;1.20;1.20;;;1.50;98.00;;;;;;5032816;28;20461;-67
2020/12/17 06:36:55;;;;;;;1.53;1.20;;;1.50;98.00;;;;;;5034097;28;20830;-68
2020/12/17 06:39:21;;;;;;;1.53;1.43;;;1.60;98.00;;;;;;5032546;28;20485;-66
2020/12/17 06:41:48;;;;;;;2.07;1.93;;;1.60;98.00;;;;;;5034236;28;20488;-68
2020/12/17 06:44:30;;;;;;;1.70;1.30;;;1.70;98.00;;;;;;5032641;28;20531;-68
2020/12/17 06:46:59;;;;;;;1.17;1.00;;;1.80;98.00;;;;;;5030268;28;20501;-68
2020/12/17 06:49:27;;;;;;;1.87;1.83;;;1.90;98.00;;;;;;5032420;28;20458;-65
2020/12/17 06:52:06;;;;;;;1.20;1.10;;;1.80;98.00;;;;;;5033881;28;20552;-67
2020/12/17 06:54:40;;;;;;;1.30;1.20;;;1.90;98.00;;;;;;5033961;28;20886;-68
2020/12/17 06:57:09;;;;;;;1.60;1.43;;;1.90;98.00;;;;;;5032692;28;20553;-67
2020/12/17 06:59:36;;;;;;;1.87;1.50;;;1.80;98.00;;;;;;5033996;28;20851;-67
2020/12/17 07:02:05;;;;;;;1.17;0.90;;;1.80;98.00;;;;;;5033692;28;20975;-66
2020/12/17 07:04:42;;;;;;;2.60;1.83;;;1.70;98.00;;;;;;5033055;28;20476;-68
2020/12/17 07:07:13;;;;;;;1.40;1.20;;;1.80;98.00;;;;;;5031905;28;20510;-67
2020/12/17 07:09:40;;;;;;;1.83;1.77;;;1.80;98.00;;;;;;5033785;28;20462;-67
2020/12/17 07:12:09;;;;;;;2.00;1.30;;;1.80;98.00;;;;;;5032787;28;20458;-68
2020/12/17 07:14:36;;;;;;;8.30;1.77;;;1.70;98.00;;;;;;5033665;28;20465;-66
2020/12/17 07:17:05;;;;;;;1.20;1.20;;;1.70;98.00;;;;;;5033749;28;20465;-66
2020/12/17 07:19:39;;;;;;;1.67;1.67;;;1.80;98.00;;;;;;5032453;28;20459;-66
2020/12/17 07:22:07;;;;;;;1.20;1.00;;;1.80;98.00;;;;;;5033016;28;21022;-66
2020/12/17 07:24:36;;;;;;;1.30;1.10;;;1.80;98.00;;;;;;5033033;28;20464;-66
2020/12/17 07:27:09;;;;;;;1.20;1.10;;;1.90;98.00;;;;;;5033535;28;20461;-66
2020/12/17 07:29:45;;;;;;;1.50;1.30;;;1.90;98.00;;;;;;5033623;28;21170;-66
2020/12/17 07:32:35;;;;;;;4.03;1.93;;;1.80;98.00;;;;;;5031466;28;20461;-65
2020/12/17 07:35:17;;;;;;;1.20;1.00;;;1.90;98.00;;;;;;5032062;28;20502;-66
2020/12/17 07:37:45;;;;;;;1.93;1.23;;;2.00;98.00;;;;;;5031452;28;20943;-65
2020/12/17 07:40:27;;;;;;;2.13;1.37;;;2.00;98.00;;;;;;5033126;28;20520;-66
2020/12/17 07:43:05;;;;;;;12.87;3.47;;;2.00;98.00;;;;;;5029654;28;20522;-65
2020/12/17 07:45:51;;;;;;;1.60;1.47;;;2.00;98.00;;;;;;5032948;28;20465;-66
2020/12/17 07:48:43;;;;;;;1.80;1.47;;;2.00;98.00;;;;;;5030988;28;21074;-67
2020/12/17 07:51:31;;;;;;;2.37;2.07;;;2.10;98.00;;;;;;5032766;28;20496;-67
2020/12/17 07:54:01;;;;;;;3.57;2.33;;;2.10;98.00;;;;;;5031211;28;20520;-66
2020/12/17 07:56:28;;;;;;;1.40;1.40;;;2.10;98.00;;;;;;5032579;28;20497;-66
2020/12/17 07:58:55;;;;;;;1.77;1.60;;;2.20;98.00;;;;;;5031417;28;20946;-65
2020/12/17 08:01:21;;;;;;;2.43;2.20;;;2.30;98.00;;;;;;5032655;28;20516;-66
2020/12/17 08:03:50;;;;;;;1.40;1.40;;;2.50;98.00;;;;;;5031187;28;20472;-67
2020/12/17 08:06:18;;;;;;;1.33;1.33;;;2.60;98.00;;;;;;5032695;28;20996;-66
2020/12/17 08:08:49;;;;;;;1.67;1.57;;;2.60;98.00;;;;;;5030873;28;20483;-66
2020/12/17 08:11:15;;;;;;;3.97;2.57;;;2.70;98.00;;;;;;5032402;28;20470;-69
2020/12/17 08:13:42;;;;;;;1.20;1.07;;;2.70;98.00;;;;;;5029536;28;20450;-66
2020/12/17 08:16:08;;;;;;;2.23;1.57;;;2.90;98.00;;;;;;5032396;28;20875;-66
2020/12/17 08:18:37;;;;;;;1.80;1.60;;;2.90;98.00;;;;;;5030658;28;20527;-68
2020/12/17 08:21:06;;;;;;;4.00;2.63;;;2.90;98.00;;;;;;5032111;28;20512;-68
2020/12/17 08:23:34;;;;;;;5.77;2.17;;;3.00;98.00;;;;;;5030563;28;20462;-67
2020/12/17 08:26:01;;;;;;;2.20;1.80;;;3.10;98.00;;;;;;5030671;28;20454;-67
2020/12/17 08:28:36;;;;;;;4.83;3.00;;;3.20;98.00;;;;;;5030673;28;20544;-66
2020/12/17 08:31:07;;;;;;;2.43;1.77;;;3.10;98.00;;;;;;5032236;28;20539;-67
2020/12/17 08:33:36;;;;;;;1.87;1.53;;;3.10;98.00;;;;;;5029037;28;20462;-66
2020/12/17 08:36:08;;;;;;;1.67;1.43;;;3.00;98.00;;;;;;5031572;28;20473;-66
2020/12/17 08:38:35;;;;;;;3.43;1.97;;;3.00;98.00;;;;;;5028467;28;20525;-66
2020/12/17 08:41:04;;;;;;;1.77;1.57;;;3.20;98.00;;;;;;5031698;28;20458;-67
2020/12/17 08:43:39;;;;;;;2.03;1.80;;;3.30;98.00;;;;;;5030065;28;20532;-66
2020/12/17 08:46:08;;;;;;;1.77;1.43;;;3.80;98.00;;;;;;5031561;28;20509;-68
2020/12/17 08:48:39;;;;;;;1.30;1.23;;;5.10;98.00;;;;;;5029374;28;20486;-66
2020/12/17 08:51:10;;;;;;;1.50;1.10;;;6.10;98.00;;;;;;5029952;28;20962;-68
2020/12/17 08:53:41;;;;;;;1.20;1.10;;;6.90;98.00;;;;;;5030142;28;20973;-66
2020/12/17 08:56:12;;;;;;;1.93;1.40;;;7.60;98.00;;;;;;5029896;28;20460;-66
2020/12/17 08:58:50;;;;;;;3.83;2.13;;;8.40;98.00;;;;;;5030117;28;20462;-67
2020/12/17 09:01:19;;;;;;;1.30;1.27;;;9.00;98.00;;;;;;5031381;28;20477;-65
2020/12/17 09:03:47;;;;;;;2.17;1.87;;;9.60;98.00;;;;;;5029039;28;20561;-66
2020/12/17 09:06:15;;;;;;;4.03;2.27;;;9.40;98.00;;;;;;5031605;28;20474;-65
2020/12/17 09:08:42;;;;;;;2.90;2.70;;;8.80;98.00;;;;;;5030090;28;20486;-67
2020/12/17 09:11:30;;;;;;;1.80;1.77;;;7.90;98.00;;;;;;5030267;28;20464;-66
2020/12/17 09:14:05;;;;;;;1.20;1.10;;;7.20;98.00;;;;;;5030075;28;20744;-66
2020/12/17 09:16:33;;;;;;;2.00;1.60;;;6.70;98.00;;;;;;5031277;28;20765;-66
2020/12/17 09:19:02;;;;;;;1.40;1.33;;;6.50;98.00;;;;;;5029792;28;20459;-66
2020/12/17 09:21:30;;;;;;;1.20;1.10;;;6.20;98.00;;;;;;5030946;28;20489;-66
2020/12/17 09:23:57;;;;;;;1.83;1.70;;;6.10;98.00;;;;;;5029585;28;20519;-65
2020/12/17 09:26:24;;;;;;;1.93;1.70;;;6.00;98.00;;;;;;5031224;28;20903;-65
2020/12/17 09:28:56;;;;;;;2.53;1.63;;;6.00;98.00;;;;;;5029895;28;20487;-66
2020/12/17 09:31:34;;;;;;;3.53;2.03;;;6.00;98.00;;;;;;5030892;28;20463;-65
2020/12/17 09:34:12;;;;;;;3.63;2.40;;;6.10;98.00;;;;;;5029557;28;20958;-67
2020/12/17 09:36:42;;;;;;;1.40;1.20;;;5.90;98.00;;;;;;5031319;28;21051;-66
2020/12/17 09:39:12;;;;;;;1.40;1.23;;;5.70;98.00;;;;;;5029492;28;20948;-67
2020/12/17 09:41:50;;;;;;;1.67;1.20;;;5.70;98.00;;;;;;5031209;28;20458;-65
2020/12/17 09:44:27;;;;;;;1.53;1.40;;;5.70;98.00;;;;;;5029635;28;20463;-66
2020/12/17 09:46:53;;;;;;;2.33;1.93;;;5.80;98.00;;;;;;5031333;28;20459;-64
2020/12/17 09:49:28;;;;;;;1.20;1.20;;;6.60;98.00;;;;;;5029456;28;20561;-64
2020/12/17 09:52:06;;;;;;;2.27;1.30;;;7.30;98.00;;;;;;5031137;28;20501;-65
2020/12/17 09:54:34;;;;;;;1.30;1.20;;;8.10;98.00;;;;;;5029723;28;20469;-65
2020/12/17 09:57:10;;;;;;;4.20;1.80;;;8.80;98.00;;;;;;5031637;28;20956;-65
2020/12/17 09:59:37;;;;;;;2.13;1.60;;;9.00;98.00;;;;;;5028810;28;20458;-66
2020/12/17 10:02:06;;;;;;;2.40;1.87;;;8.80;98.00;;;;;;5030780;28;20463;-67
2020/12/17 10:04:32;;;;;;;2.10;1.83;;;8.50;98.00;;;;;;5029267;28;20517;-65
2020/12/17 10:06:59;;;;;;;1.40;1.30;;;8.10;98.00;;;;;;5033538;28;20454;-65
2020/12/17 10:09:27;;;;;;;4.33;2.73;;;7.70;98.00;;;;;;5033476;28;20847;-66
2020/12/17 10:11:55;;;;;;;3.33;1.97;;;7.50;98.00;;;;;;5033902;28;20954;-67
2020/12/17 10:14:22;;;;;;;4.80;3.10;;;7.20;98.00;;;;;;5033762;28;20468;-67
2020/12/17 10:16:49;;;;;;;1.20;1.00;;;7.00;98.00;;;;;;5034976;28;20464;-65
2020/12/17 10:19:17;;;;;;;1.77;1.53;;;7.00;98.00;;;;;;5033485;28;20896;-65
2020/12/17 10:21:43;;;;;;;2.50;2.37;;;6.80;98.00;;;;;;5033419;28;20545;-66
2020/12/17 10:24:10;;;;;;;2.97;2.03;;;6.70;98.00;;;;;;5033229;28;20453;-66
2020/12/17 10:26:38;;;;;;;2.13;1.60;;;6.50;98.00;;;;;;5034449;28;20565;-69
2020/12/17 10:29:04;;;;;;;1.80;1.33;;;6.50;98.00;;;;;;5033039;28;20574;-66
2020/12/17 10:31:30;;;;;;;2.70;1.77;;;6.50;98.00;;;;;;5034339;28;20479;-66
2020/12/17 10:33:57;;;;;;;1.20;1.10;;;6.60;98.00;;;;;;5033127;28;20502;-68
2020/12/17 10:36:24;;;;;;;2.73;1.83;;;6.70;98.00;;;;;;5034118;28;20475;-67
2020/12/17 10:38:51;;;;;;;1.37;1.33;;;6.70;98.00;;;;;;5033021;28;20471;-66
2020/12/17 10:41:23;;;;;;;1.87;1.67;;;6.70;98.00;;;;;;5034209;28;20473;-67
2020/12/17 10:43:52;;;;;;;2.23;1.60;;;6.70;98.00;;;;;;5033061;28;20457;-65
2020/12/17 10:46:18;;;;;;;2.33;1.80;;;6.80;98.00;;;;;;5033941;28;20518;-66
2020/12/17 10:48:46;;;;;;;1.37;1.33;;;6.90;98.00;;;;;;5032916;28;20486;-65
2020/12/17 10:51:13;;;;;;;3.43;1.43;;;6.90;98.00;;;;;;5034060;28;20625;-67
2020/12/17 10:53:40;;;;;;;1.87;1.40;;;6.80;98.00;;;;;;5032597;28;20466;-66
2020/12/17 10:56:07;;;;;;;1.90;1.60;;;6.80;98.00;;;;;;5033439;28;20462;-65
2020/12/17 10:58:33;;;;;;;3.00;1.93;;;6.80;98.00;;;;;;5032550;28;20447;-67
2020/12/17 11:01:01;;;;;;;1.20;1.20;;;6.90;98.00;;;;;;5033771;28;20468;-67
2020/12/17 11:03:28;;;;;;;2.23;2.03;;;6.90;98.00;;;;;;5032064;28;20522;-65
2020/12/17 11:05:56;;;;;;;2.63;2.13;;;7.00;98.00;;;;;;5033724;28;20460;-65
2020/12/17 11:08:23;;;;;;;3.27;1.53;;;7.20;98.00;;;;;;5031938;28;20483;-66
2020/12/17 11:10:49;;;;;;;1.30;1.10;;;7.40;98.00;;;;;;5033853;28;20517;-67
2020/12/17 11:13:24;;;;;;;1.93;1.60;;;7.50;98.00;;;;;;5032186;28;20466;-67
2020/12/17 11:15:50;;;;;;;2.03;1.83;;;7.50;98.00;;;;;;5017253;28;20461;-65
2020/12/17 11:18:20;;;;;;;1.47;1.40;;;7.80;98.00;;;;;;5030900;28;20853;-67
2020/12/17 11:20:46;;;;;;;1.57;1.33;;;8.00;98.00;;;;;;5032260;28;20477;-65
2020/12/17 11:23:19;;;;;;;1.73;1.30;;;8.10;98.00;;;;;;5032015;28;20511;-67
2020/12/17 11:25:46;;;;;;;1.30;1.13;;;8.00;98.00;;;;;;5032213;28;20949;-66
2020/12/17 11:28:12;;;;;;;1.87;1.40;;;7.90;98.00;;;;;;5032589;28;20511;-66
2020/12/17 11:30:41;;;;;;;1.30;1.10;;;7.80;98.00;;;;;;5033494;28;20745;-66
2020/12/17 11:33:09;;;;;;;1.40;1.30;;;7.80;98.00;;;;;;5032024;28;20467;-67
2020/12/17 11:35:36;;;;;;;1.60;1.50;;;7.80;98.00;;;;;;5033321;28;20894;-65
2020/12/17 11:38:03;;;;;;;1.40;1.20;;;7.80;98.00;;;;;;5031841;28;20520;-66
2020/12/17 11:40:29;;;;;;;3.13;1.73;;;7.80;98.00;;;;;;5033747;28;20485;-65
2020/12/17 11:42:57;;;;;;;1.20;1.10;;;7.80;98.00;;;;;;5031909;28;20498;-66
2020/12/17 11:45:24;;;;;;;1.70;1.67;;;7.90;98.00;;;;;;5032114;28;20459;-65
2020/12/17 11:47:51;;;;;;;1.20;1.00;;;7.90;98.00;;;;;;5031641;28;20828;-65
2020/12/17 11:50:18;;;;;;;3.57;1.30;;;8.00;98.00;;;;;;5031800;28;20492;-66
2020/12/17 11:52:46;;;;;;;5.33;1.70;;;8.00;98.00;;;;;;5031809;28;20466;-66
2020/12/17 11:55:13;;;;;;;1.40;1.30;;;8.10;98.00;;;;;;5032915;28;20489;-66
2020/12/17 11:57:41;;;;;;;1.20;1.10;;;8.10;98.00;;;;;;5031221;28;20461;-66
2020/12/17 12:00:08;;;;;;;1.90;1.40;;;8.10;98.00;;;;;;5031416;28;20464;-68
2020/12/17 12:02:35;;;;;;;1.30;1.20;;;8.10;98.00;;;;;;5032414;28;20831;-66
2020/12/17 12:05:03;;;;;;;1.83;1.20;;;8.10;98.00;;;;;;5032007;28;20465;-67
2020/12/17 12:07:30;;;;;;;1.20;1.20;;;8.20;98.00;;;;;;5032687;28;20527;-65
2020/12/17 12:09:59;;;;;;;1.67;1.30;;;8.40;98.00;;;;;;5031676;28;20832;-66
2020/12/17 12:12:30;;;;;;;1.67;1.67;;;8.40;98.00;;;;;;5032320;28;20450;-66
2020/12/17 12:14:57;;;;;;;1.90;1.50;;;8.30;98.00;;;;;;5030400;28;20462;-66
2020/12/17 12:17:23;;;;;;;1.50;1.40;;;8.40;98.00;;;;;;5032616;28;20462;-66
2020/12/17 12:19:50;;;;;;;1.60;1.57;;;8.40;98.00;;;;;;5030711;28;20455;-67
2020/12/17 12:22:17;;;;;;;1.20;1.20;;;8.70;98.00;;;;;;5031177;28;20530;-66
2020/12/17 12:24:43;;;;;;;1.70;1.60;;;8.70;98.00;;;;;;5030882;28;20473;-66
2020/12/17 12:27:12;;;;;;;1.20;1.20;;;8.80;98.00;;;;;;5032444;28;20945;-67
2020/12/17 12:29:39;;;;;;;2.03;1.50;;;8.80;98.00;;;;;;5030563;28;20489;-66
2020/12/17 12:32:06;;;;;;;2.90;1.50;;;8.70;98.00;;;;;;5032211;28;20986;-66
2020/12/17 12:34:32;;;;;;;1.70;1.53;;;8.70;98.00;;;;;;5030734;28;20504;-66
2020/12/17 12:36:59;;;;;;;3.50;1.87;;;8.70;98.00;;;;;;5032089;28;21048;-66
2020/12/17 12:39:26;;;;;;;1.50;1.40;;;8.80;98.00;;;;;;5030635;28;20454;-66
2020/12/17 12:41:53;;;;;;;1.20;1.10;;;8.80;98.00;;;;;;5032271;28;20872;-66
2020/12/17 12:44:20;;;;;;;2.33;1.83;;;8.80;98.00;;;;;;5030380;28;20460;-66
2020/12/17 12:46:48;;;;;;;1.33;1.27;;;8.90;98.00;;;;;;5031972;28;20459;-66
2020/12/17 12:49:15;;;;;;;1.30;1.20;;;8.90;98.00;;;;;;5030413;28;20488;-66
2020/12/17 12:51:41;;;;;;;1.20;1.10;;;9.00;98.00;;;;;;5030681;28;20525;-67
2020/12/17 12:54:08;;;;;;;1.40;1.20;;;9.00;98.00;;;;;;5030306;28;20493;-66
2020/12/17 12:56:35;;;;;;;1.83;1.20;;;9.20;98.00;;;;;;5031703;28;20881;-66
2020/12/17 12:59:01;;;;;;;1.20;1.00;;;9.30;98.00;;;;;;5030246;28;20465;-66
2020/12/17 13:01:38;;;;;;;2.43;1.43;;;9.40;98.00;;;;;;5031470;28;20508;-67
2020/12/17 13:04:05;;;;;;;1.40;1.27;;;9.50;98.00;;;;;;5028812;28;20497;-65
2020/12/17 13:06:35;;;;;;;1.30;1.10;;;9.60;98.00;;;;;;5031543;28;20513;-65